createdAt,value
2022-08-01T00:00:09.166Z,96719.75
2022-08-01T00:02:40.444Z,96719.69
2022-08-01T00:05:09.379Z,96713.22
2022-08-01T00:07:36.530Z,96720.31
2022-08-01T00:10:05.681Z,96718.09
2022-08-01T00:12:32.533Z,96710.38
2022-08-01T00:14:59.190Z,96719.03
2022-08-01T00:17:25.888Z,96719.56
2022-08-01T00:19:52.593Z,96712.84
2022-08-01T00:22:19.430Z,96720.59
2022-08-01T00:24:46.060Z,96716.19
2022-08-01T00:27:12.674Z,96716.75
2022-08-01T00:30:12.078Z,96713.88
2022-08-01T00:32:26.444Z,96711.91
2022-08-01T00:34:53.156Z,96719.09
2022-08-01T00:37:19.728Z,96710.53
2022-08-01T00:39:46.393Z,96712.38
2022-08-01T00:42:13.663Z,96706.66
2022-08-01T00:44:41.497Z,96710.56
2022-08-01T00:47:10.378Z,96711.06
2022-08-01T00:49:37.149Z,96714.88
2022-08-01T00:52:06.520Z,96714.78
2022-08-01T00:54:33.813Z,96714.66
2022-08-01T00:57:01.052Z,96712.66
2022-08-01T00:59:27.926Z,96720.66
2022-08-01T01:01:55.929Z,96722.75
2022-08-01T01:04:23.276Z,96713.38
2022-08-01T01:07:06.752Z,96709.78
2022-08-01T01:09:43.784Z,96708.84
2022-08-01T01:12:30.679Z,96714.28
2022-08-01T01:15:11.790Z,96713.50
2022-08-01T01:17:57.063Z,96713.84
2022-08-01T01:20:28.512Z,96719.50
2022-08-01T01:23:01.128Z,96713.66
2022-08-01T01:26:03.505Z,96722.16
2022-08-01T01:28:53.099Z,96722.50
2022-08-01T01:31:22.534Z,96723.44
2022-08-01T01:33:50.694Z,96711.13
2022-08-01T01:36:20.417Z,96719.72
2022-08-01T01:38:49.107Z,96719.34
2022-08-01T01:41:18.541Z,96711.91
2022-08-01T01:43:47.112Z,96724.81
2022-08-01T01:46:17.846Z,96718.28
2022-08-01T01:48:47.534Z,96721.75
2022-08-01T01:51:16.276Z,96725.50
2022-08-01T01:53:44.555Z,96729.72
2022-08-01T01:56:12.742Z,96721.94
2022-08-01T01:58:40.349Z,96721.59
2022-08-01T02:01:12.444Z,96726.13
2022-08-01T02:03:44.089Z,96721.72
2022-08-01T02:06:14.413Z,96725.06
2022-08-01T02:08:42.749Z,96728.16
2022-08-01T02:11:22.427Z,96729.28
2022-08-01T02:14:03.872Z,96735.16
2022-08-01T02:16:35.460Z,96728.63
2022-08-01T02:19:03.726Z,96733.47
2022-08-01T02:21:39.735Z,96738.75
2022-08-01T02:24:41.868Z,96746.84
2022-08-01T02:27:18.525Z,96748.63
2022-08-01T02:29:54.234Z,96757.31
2022-08-01T02:32:26.682Z,96753.94
2022-08-01T02:34:57.418Z,96763.09
2022-08-01T02:37:27.802Z,96755.78
2022-08-01T02:39:55.803Z,96747.31
2022-08-01T02:42:25.390Z,96751.88
2022-08-01T02:44:54.950Z,96757.34
2022-08-01T02:47:24.324Z,96753.28
2022-08-01T02:49:54.012Z,96748.31
2022-08-01T02:52:24.168Z,96750.72
2022-08-01T02:54:54.498Z,96758.09
2022-08-01T02:57:22.687Z,96757.06
2022-08-01T02:59:54.959Z,96755.22
2022-08-01T03:02:25.177Z,96765.78
2022-08-01T03:04:57.091Z,96763.91
2022-08-01T03:07:25.071Z,96764.00
2022-08-01T03:10:03.057Z,96765.09
2022-08-01T03:12:34.146Z,96767.84
2022-08-01T03:15:03.453Z,96774.59
2022-08-01T03:17:31.568Z,96775.41
2022-08-01T03:20:00.134Z,96778.72
2022-08-01T03:22:28.953Z,96779.84
2022-08-01T03:24:58.752Z,96785.28
2022-08-01T03:27:26.271Z,96787.59
2022-08-01T03:29:56.110Z,96779.41
2022-08-01T03:32:23.317Z,96772.16
2022-08-01T03:34:50.371Z,96780.81
2022-08-01T03:37:29.077Z,96782.69
2022-08-01T03:40:06.055Z,96789.75
2022-08-01T03:42:37.645Z,96787.88
2022-08-01T03:45:13.329Z,96792.31
2022-08-01T03:47:45.030Z,96788.16
2022-08-01T03:50:14.631Z,96791.38
2022-08-01T03:52:44.614Z,96792.91
2022-08-01T03:55:12.960Z,96795.41
2022-08-01T03:57:40.320Z,96791.06
2022-08-01T04:00:09.978Z,96790.16
2022-08-01T04:02:37.994Z,96790.53
2022-08-01T04:05:05.594Z,96799.53
2022-08-01T04:07:36.834Z,96804.56
2022-08-01T04:10:04.595Z,96801.63
2022-08-01T04:12:31.474Z,96803.53
2022-08-01T04:14:58.086Z,96801.16
2022-08-01T04:17:24.683Z,96802.41
2022-08-01T04:19:51.630Z,96806.47
2022-08-01T04:22:18.309Z,96812.44
2022-08-01T04:24:56.441Z,96813.34
2022-08-01T04:27:50.477Z,96822.59
2022-08-01T04:30:20.798Z,96822.47
2022-08-01T04:32:48.998Z,96821.56
2022-08-01T04:35:23.171Z,96824.69
2022-08-01T04:38:07.235Z,96821.41
2022-08-01T04:40:37.157Z,96833.84
2022-08-01T04:43:04.567Z,96825.72
2022-08-01T04:45:33.687Z,96838.78
2022-08-01T04:48:00.985Z,96833.44
2022-08-01T04:50:28.819Z,96832.81
2022-08-01T04:52:55.606Z,96835.16
2022-08-01T04:55:22.208Z,96834.50
2022-08-01T04:57:49.121Z,96833.06
2022-08-01T05:00:17.629Z,96839.78
2022-08-01T05:02:44.632Z,96840.53
2022-08-01T05:05:11.545Z,96846.50
2022-08-01T05:07:43.045Z,96850.47
2022-08-01T05:10:12.114Z,96848.84
2022-08-01T05:12:38.716Z,96854.34
2022-08-01T05:15:06.055Z,96850.78
2022-08-01T05:17:32.761Z,96855.97
2022-08-01T05:19:59.467Z,96846.31
2022-08-01T05:22:26.695Z,96856.44
2022-08-01T05:24:53.810Z,96855.50
2022-08-01T05:27:20.765Z,96855.94
2022-08-01T05:29:48.196Z,96854.59
2022-08-01T05:32:14.970Z,96858.16
2022-08-01T05:34:41.615Z,96859.06
2022-08-01T05:37:08.596Z,96859.09
2022-08-01T05:39:35.291Z,96857.19
2022-08-01T05:42:01.929Z,96845.91
2022-08-01T05:44:28.701Z,96853.69
2022-08-01T05:46:55.443Z,96852.66
2022-08-01T05:49:22.199Z,96847.19
2022-08-01T05:51:48.949Z,96855.81
2022-08-01T05:54:15.777Z,96848.34
2022-08-01T05:56:42.671Z,96845.66
2022-08-01T05:59:09.279Z,96840.28
2022-08-01T06:01:36.036Z,96841.09
2022-08-01T06:04:02.690Z,96846.00
2022-08-01T06:06:29.365Z,96844.91
2022-08-01T06:08:55.965Z,96846.06
2022-08-01T06:11:22.640Z,96842.41
2022-08-01T06:13:49.384Z,96863.34
2022-08-01T06:16:16.793Z,96858.44
2022-08-01T06:18:43.797Z,96857.97
2022-08-01T06:21:10.463Z,96857.47
2022-08-01T06:23:37.245Z,96866.91
2022-08-01T06:26:04.160Z,96863.38
2022-08-01T06:28:31.083Z,96862.72
2022-08-01T06:30:59.622Z,96866.81
2022-08-01T06:33:27.661Z,96871.41
2022-08-01T06:35:54.429Z,96865.81
2022-08-01T06:38:21.121Z,96872.53
2022-08-01T06:40:47.941Z,96872.69
2022-08-01T06:43:14.608Z,96875.50
2022-08-01T06:45:41.266Z,96874.66
2022-08-01T06:48:07.989Z,96872.56
2022-08-01T06:50:36.818Z,96877.28
2022-08-01T06:53:04.094Z,96874.47
2022-08-01T06:55:30.894Z,96882.97
2022-08-01T06:57:57.711Z,96880.84
2022-08-01T07:00:25.591Z,96882.47
2022-08-01T07:02:53.403Z,96889.69
2022-08-01T07:05:20.742Z,96899.38
2022-08-01T07:07:47.401Z,96891.78
2022-08-01T07:10:14.222Z,96896.81
2022-08-01T07:12:42.066Z,96900.13
2022-08-01T07:15:09.934Z,96896.97
2022-08-01T07:17:41.472Z,96903.69
2022-08-01T07:20:13.916Z,96892.84
2022-08-01T07:22:43.562Z,96889.94
2022-08-01T07:25:12.074Z,96899.53
2022-08-01T07:27:38.717Z,96890.00
2022-08-01T07:30:06.605Z,96902.06
2022-08-01T07:32:33.353Z,96897.91
2022-08-01T07:35:00.413Z,96892.88
2022-08-01T07:37:42.034Z,96894.00
2022-08-01T07:40:14.902Z,96898.00
2022-08-01T07:42:45.920Z,96894.19
2022-08-01T07:45:13.729Z,96903.97
2022-08-01T07:47:40.396Z,96905.81
2022-08-01T07:50:08.119Z,96906.13
2022-08-01T07:52:34.833Z,96914.09
2022-08-01T07:55:01.438Z,96915.06
2022-08-01T07:57:28.068Z,96912.44
2022-08-01T07:59:54.694Z,96912.00
2022-08-01T08:02:21.428Z,96912.28
2022-08-01T08:04:49.185Z,96912.34
2022-08-01T08:07:16.365Z,96907.31
2022-08-01T08:09:43.042Z,96906.59
2022-08-01T08:12:10.634Z,96911.72
2022-08-01T08:14:37.708Z,96904.75
2022-08-01T08:17:05.428Z,96901.53
2022-08-01T08:19:37.720Z,96901.56
2022-08-01T08:22:06.891Z,96915.31
2022-08-01T08:24:33.857Z,96906.66
2022-08-01T08:27:02.021Z,96911.50
2022-08-01T08:29:30.990Z,96902.06
2022-08-01T08:31:58.774Z,96905.84
2022-08-01T08:34:27.768Z,96902.06
2022-08-01T08:36:57.102Z,96899.94
2022-08-01T08:39:25.638Z,96903.22
2022-08-01T08:41:52.697Z,96897.53
2022-08-01T08:44:21.268Z,96897.78
2022-08-01T08:46:53.249Z,96904.56
2022-08-01T08:49:25.462Z,96909.53
2022-08-01T08:51:53.919Z,96901.13
2022-08-01T08:54:31.653Z,96898.44
2022-08-01T08:56:59.927Z,96890.28
2022-08-01T08:59:27.362Z,96895.66
2022-08-01T09:01:53.978Z,96895.06
2022-08-01T09:04:23.986Z,96899.28
2022-08-01T09:06:54.125Z,96904.91
2022-08-01T09:09:20.807Z,96904.56
2022-08-01T09:11:57.678Z,96900.22
2022-08-01T09:14:30.939Z,96902.56
2022-08-01T09:17:11.376Z,96906.56
2022-08-01T09:19:54.916Z,96913.34
2022-08-01T09:22:25.624Z,96914.75
2022-08-01T09:25:10.583Z,96916.38
2022-08-01T09:27:44.169Z,96913.66
2022-08-01T09:30:17.294Z,96913.44
2022-08-01T09:33:11.148Z,96922.56
2022-08-01T09:35:46.377Z,96920.38
2022-08-01T09:38:19.090Z,96921.72
2022-08-01T09:40:52.597Z,96921.13
2022-08-01T09:43:20.814Z,96923.88
2022-08-01T09:45:49.206Z,96917.19
2022-08-01T09:48:22.513Z,96923.91
2022-08-01T09:50:53.343Z,96923.09
2022-08-01T09:53:24.346Z,96917.72
2022-08-01T09:56:10.412Z,96906.09
2022-08-01T09:58:57.823Z,96899.09
2022-08-01T10:01:26.406Z,96892.84
2022-08-01T10:04:21.495Z,96905.16
2022-08-01T10:06:53.580Z,96895.06
2022-08-01T10:09:35.846Z,96891.91
2022-08-01T10:12:07.778Z,96891.34
2022-08-01T10:14:37.350Z,96899.16
2022-08-01T10:17:05.794Z,96878.38
2022-08-01T10:19:33.753Z,96888.53
2022-08-01T10:22:01.875Z,96880.53
2022-08-01T10:24:30.810Z,96880.78
2022-08-01T10:27:12.607Z,96881.75
2022-08-01T10:30:05.372Z,96883.66
2022-08-01T10:32:36.667Z,96878.16
2022-08-01T10:35:07.620Z,96879.94
2022-08-01T10:37:52.408Z,96885.03
2022-08-01T10:40:30.535Z,96888.19
2022-08-01T10:42:58.148Z,96865.34
2022-08-01T10:45:27.617Z,96866.50
2022-08-01T10:48:08.924Z,96861.88
2022-08-01T10:50:48.490Z,96862.13
2022-08-01T10:53:24.191Z,96852.50
2022-08-01T10:56:02.542Z,96856.94
2022-08-01T10:58:42.493Z,96862.78
2022-08-01T11:01:23.126Z,96863.91
2022-08-01T11:04:01.198Z,96853.50
2022-08-01T11:06:55.475Z,96859.78
2022-08-01T11:09:36.262Z,96857.13
2022-08-01T11:12:23.422Z,96860.72
2022-08-01T11:15:00.058Z,96866.78
2022-08-01T11:17:42.516Z,96861.22
2022-08-01T11:20:13.873Z,96847.06
2022-08-01T11:23:03.135Z,96857.78
2022-08-01T11:26:03.482Z,96855.28
2022-08-01T11:28:32.187Z,96851.22
2022-08-01T11:31:13.888Z,96857.09
2022-08-01T11:33:45.874Z,96850.16
2022-08-01T11:36:22.251Z,96845.28
2022-08-01T11:39:00.631Z,96850.41
2022-08-01T11:41:38.460Z,96852.59
2022-08-01T11:44:30.363Z,96848.22
2022-08-01T11:47:00.707Z,96849.28
2022-08-01T11:49:51.814Z,96855.66
2022-08-01T11:52:27.769Z,96850.22
2022-08-01T11:54:58.846Z,96837.75
2022-08-01T11:57:39.034Z,96842.88
2022-08-01T12:00:18.050Z,96834.47
2022-08-01T12:02:47.692Z,96834.06
2022-08-01T12:05:19.053Z,96837.84
2022-08-01T12:07:50.460Z,96839.16
2022-08-01T12:10:19.341Z,96844.09
2022-08-01T12:12:47.206Z,96836.28
2022-08-01T12:15:14.461Z,96839.81
2022-08-01T12:17:58.240Z,96832.91
2022-08-01T12:20:30.400Z,96835.34
2022-08-01T12:22:59.999Z,96831.31
2022-08-01T12:25:27.034Z,96829.97
2022-08-01T12:27:56.493Z,96836.66
2022-08-01T12:30:25.379Z,96843.94
2022-08-01T12:32:54.121Z,96838.50
2022-08-01T12:35:24.312Z,96832.84
2022-08-01T12:37:55.942Z,96851.94
2022-08-01T12:40:27.977Z,96836.91
2022-08-01T12:42:57.970Z,96844.56
2022-08-01T12:45:56.699Z,96839.47
2022-08-01T12:48:25.187Z,96840.44
2022-08-01T12:50:53.586Z,96841.69
2022-08-01T12:53:22.053Z,96840.81
2022-08-01T12:55:58.070Z,96851.03
2022-08-01T12:58:26.056Z,96843.03
2022-08-01T13:01:05.005Z,96842.88
2022-08-01T13:03:31.652Z,96848.38
2022-08-01T13:05:59.700Z,96842.13
2022-08-01T13:08:30.690Z,96841.41
2022-08-01T13:11:06.346Z,96834.97
2022-08-01T13:13:40.349Z,96837.47
2022-08-01T13:16:12.137Z,96849.19
2022-08-01T13:18:39.914Z,96844.84
2022-08-01T13:21:17.898Z,96844.78
2022-08-01T13:24:11.982Z,96833.78
2022-08-01T13:26:47.294Z,96833.56
2022-08-01T13:29:16.722Z,96841.47
2022-08-01T13:31:44.460Z,96830.94
2022-08-01T13:34:11.318Z,96830.25
2022-08-01T13:36:38.848Z,96836.00
2022-08-01T13:39:25.713Z,96836.00
2022-08-01T13:41:53.394Z,96838.22
2022-08-01T13:44:20.220Z,96829.72
2022-08-01T13:46:49.770Z,96832.53
2022-08-01T13:49:17.941Z,96826.00
2022-08-01T13:51:46.988Z,96829.69
2022-08-01T13:54:13.730Z,96829.94
2022-08-01T13:56:40.477Z,96831.03
2022-08-01T13:59:07.598Z,96836.16
2022-08-01T14:01:35.087Z,96827.50
2022-08-01T14:04:02.242Z,96820.88
2022-08-01T14:06:28.941Z,96825.81
2022-08-01T14:08:55.522Z,96809.84
2022-08-01T14:11:22.166Z,96811.75
2022-08-01T14:13:48.760Z,96807.91
2022-08-01T14:16:17.265Z,96808.25
2022-08-01T14:18:44.458Z,96812.03
2022-08-01T14:21:11.959Z,96812.38
2022-08-01T14:23:39.279Z,96809.63
2022-08-01T14:26:11.461Z,96807.06
2022-08-01T14:28:39.987Z,96811.31
2022-08-01T14:31:09.819Z,96810.88
2022-08-01T14:33:37.424Z,96810.88
2022-08-01T14:36:20.556Z,96810.38
2022-08-01T14:38:51.249Z,96807.25
2022-08-01T14:41:17.856Z,96817.19
2022-08-01T14:43:44.495Z,96813.47
2022-08-01T14:46:12.352Z,96820.97
2022-08-01T14:48:39.052Z,96815.38
2022-08-01T14:51:08.218Z,96811.94
2022-08-01T14:53:38.598Z,96811.41
2022-08-01T14:56:06.039Z,96812.38
2022-08-01T14:58:33.331Z,96803.75
2022-08-01T15:01:00.096Z,96805.53
2022-08-01T15:03:26.911Z,96805.56
2022-08-01T15:05:53.609Z,96806.66
2022-08-01T15:08:20.447Z,96813.59
2022-08-01T15:10:47.105Z,96798.97
2022-08-01T15:13:13.865Z,96810.41
2022-08-01T15:15:40.482Z,96814.56
2022-08-01T15:18:07.097Z,96812.97
2022-08-01T15:20:34.145Z,96806.34
2022-08-01T15:23:01.025Z,96804.38
2022-08-01T15:25:41.443Z,96805.88
2022-08-01T15:28:12.533Z,96811.09
2022-08-01T15:30:39.752Z,96811.44
2022-08-01T15:33:07.092Z,96820.88
2022-08-01T15:35:33.761Z,96818.63
2022-08-01T15:38:00.638Z,96819.50
2022-08-01T15:40:29.498Z,96816.44
2022-08-01T15:42:56.362Z,96827.31
2022-08-01T15:45:46.512Z,96814.00
2022-08-01T15:48:10.132Z,96819.91
2022-08-01T15:50:39.275Z,96823.06
2022-08-01T15:53:07.348Z,96818.06
2022-08-01T15:55:40.385Z,96815.91
2022-08-01T15:58:07.653Z,96826.63
2022-08-01T16:00:39.069Z,96831.94
2022-08-01T16:03:07.070Z,96831.78
2022-08-01T16:05:36.337Z,96830.72
2022-08-01T16:08:06.128Z,96832.78
2022-08-01T16:10:32.776Z,96820.88
2022-08-01T16:13:06.800Z,96833.09
2022-08-01T16:15:36.539Z,96826.00
2022-08-01T16:18:08.151Z,96821.63
2022-08-01T16:20:35.735Z,96811.38
2022-08-01T16:23:02.376Z,96802.72
2022-08-01T16:25:29.150Z,96816.84
2022-08-01T16:27:55.760Z,96819.38
2022-08-01T16:30:22.389Z,96819.38
2022-08-01T16:32:53.290Z,96818.97
2022-08-01T16:35:35.191Z,96821.22
2022-08-01T16:38:03.549Z,96823.19
2022-08-01T16:40:30.173Z,96817.97
2022-08-01T16:42:58.503Z,96824.53
2022-08-01T16:45:25.737Z,96819.81
2022-08-01T16:47:52.456Z,96822.59
2022-08-01T16:50:28.119Z,96822.25
2022-08-01T16:52:55.616Z,96823.09
2022-08-01T16:55:23.559Z,96823.25
2022-08-01T16:57:51.318Z,96810.34
2022-08-01T17:00:21.022Z,96818.47
2022-08-01T17:02:48.569Z,96816.47
2022-08-01T17:05:15.359Z,96820.25
2022-08-01T17:07:42.143Z,96819.03
2022-08-01T17:10:09.550Z,96820.53
2022-08-01T17:12:36.339Z,96821.34
2022-08-01T17:15:03.312Z,96824.50
2022-08-01T17:17:29.975Z,96827.25
2022-08-01T17:19:56.568Z,96826.81
2022-08-01T17:22:23.316Z,96829.34
2022-08-01T17:24:51.206Z,96830.50
2022-08-01T17:27:19.326Z,96829.19
2022-08-01T17:29:46.505Z,96825.16
2022-08-01T17:32:14.269Z,96828.66
2022-08-01T17:34:42.415Z,96823.78
2022-08-01T17:37:10.485Z,96827.09
2022-08-01T17:39:39.545Z,96830.13
2022-08-01T17:42:12.420Z,96837.88
2022-08-01T17:44:39.373Z,96846.91
2022-08-01T17:47:08.872Z,96845.88
2022-08-01T17:52:23.110Z,96851.94
2022-08-01T17:54:56.647Z,96857.94
2022-08-01T17:57:23.338Z,96850.41
2022-08-01T17:59:51.030Z,96861.19
2022-08-01T18:02:17.757Z,96860.66
2022-08-01T18:04:44.661Z,96864.44
2022-08-01T18:07:12.426Z,96872.28
2022-08-01T18:09:41.002Z,96867.97
2022-08-01T18:12:13.164Z,96865.84
2022-08-01T18:14:41.184Z,96860.75
2022-08-01T18:17:11.630Z,96863.25
2022-08-01T18:19:39.732Z,96864.66
2022-08-01T18:22:19.506Z,96867.06
2022-08-01T18:24:53.706Z,96867.94
2022-08-01T18:27:20.499Z,96866.03
2022-08-01T18:29:48.614Z,96863.88
2022-08-01T18:32:15.729Z,96867.13
2022-08-01T18:34:42.458Z,96861.25
2022-08-01T18:37:12.237Z,96872.28
2022-08-01T18:39:41.388Z,96873.34
2022-08-01T18:42:10.493Z,96873.66
2022-08-01T18:44:37.148Z,96886.78
2022-08-01T18:47:04.963Z,96887.28
2022-08-01T18:49:32.002Z,96888.63
2022-08-01T18:51:59.224Z,96884.84
2022-08-01T18:54:27.392Z,96901.25
2022-08-01T18:56:54.043Z,96891.25
2022-08-01T18:59:21.640Z,96902.81
2022-08-01T19:01:48.342Z,96901.97
2022-08-01T19:04:15.222Z,96911.03
2022-08-01T19:06:41.956Z,96905.91
2022-08-01T19:09:09.214Z,96916.63
2022-08-01T19:11:36.465Z,96917.34
2022-08-01T19:14:03.821Z,96918.19
2022-08-01T19:16:31.575Z,96924.81
2022-08-01T19:18:58.445Z,96923.19
2022-08-01T19:21:25.401Z,96929.41
2022-08-01T19:24:11.695Z,96931.53
2022-08-01T19:26:40.437Z,96927.47
2022-08-01T19:29:35.967Z,96937.91
2022-08-01T19:32:09.067Z,96937.97
2022-08-01T19:34:42.076Z,96931.78
2022-08-01T19:37:09.378Z,96936.56
2022-08-01T19:39:36.335Z,96940.84
2022-08-01T19:42:04.213Z,96943.00
2022-08-01T19:44:30.909Z,96941.88
2022-08-01T19:46:57.598Z,96943.44
2022-08-01T19:49:24.802Z,96946.69
2022-08-01T19:51:55.362Z,96946.44
2022-08-01T19:54:25.865Z,96942.13
2022-08-01T19:56:53.972Z,96942.94
2022-08-01T19:59:22.945Z,96956.28
2022-08-01T20:01:54.693Z,96949.72
2022-08-01T20:04:21.514Z,96944.69
2022-08-01T20:06:48.553Z,96954.00
2022-08-01T20:09:15.202Z,96946.06
2022-08-01T20:11:45.322Z,96950.97
2022-08-01T20:14:19.036Z,96951.38
2022-08-01T20:16:46.268Z,96946.38
2022-08-01T20:19:13.229Z,96948.13
2022-08-01T20:21:45.211Z,96949.56
2022-08-01T20:24:38.097Z,96954.16
2022-08-01T20:27:08.054Z,96949.06
2022-08-01T20:29:37.096Z,96958.44
2022-08-01T20:32:03.882Z,96947.84
2022-08-01T20:34:39.482Z,96950.00
2022-08-01T20:37:12.834Z,96955.31
2022-08-01T20:39:43.462Z,96950.91
2022-08-01T20:42:11.591Z,96960.56
2022-08-01T20:44:39.005Z,96960.00
2022-08-01T20:47:05.713Z,96962.72
2022-08-01T20:49:33.651Z,96958.50
2022-08-01T20:52:11.281Z,96959.63
2022-08-01T20:54:39.235Z,96961.22
2022-08-01T20:57:12.359Z,96968.19
2022-08-01T20:59:55.354Z,96966.34
2022-08-01T21:02:38.204Z,96968.25
2022-08-01T21:05:05.927Z,96973.09
2022-08-01T21:07:59.937Z,96979.13
2022-08-01T21:10:29.366Z,96974.41
2022-08-01T21:12:58.797Z,96982.19
2022-08-01T21:16:07.366Z,96989.47
2022-08-01T21:18:37.950Z,96991.28
2022-08-01T21:21:16.767Z,96990.84
2022-08-01T21:23:58.372Z,96995.16
2022-08-01T21:26:25.449Z,96991.09
2022-08-01T21:28:54.622Z,96995.16
2022-08-01T21:31:23.729Z,97000.38
2022-08-01T21:34:02.650Z,97004.28
2022-08-01T21:36:34.238Z,97004.66
2022-08-01T21:39:02.486Z,96998.53
2022-08-01T21:42:03.340Z,96993.13
2022-08-01T21:44:18.899Z,97004.28
2022-08-01T21:46:48.218Z,97001.50
2022-08-01T21:49:15.067Z,97007.50
2022-08-01T21:52:00.598Z,97007.38
2022-08-01T21:54:45.500Z,97015.19
2022-08-01T21:57:34.534Z,97022.09
2022-08-01T22:00:25.191Z,97023.69
2022-08-01T22:03:07.836Z,97025.91
2022-08-01T22:05:49.484Z,97026.47
2022-08-01T22:08:33.610Z,97031.34
2022-08-01T22:11:04.970Z,97015.31
2022-08-01T22:13:31.524Z,97026.06
2022-08-01T22:15:58.923Z,97024.16
2022-08-01T22:18:27.506Z,97025.34
2022-08-01T22:20:55.086Z,97025.09
2022-08-01T22:23:23.004Z,97032.78
2022-08-01T22:25:54.474Z,97030.44
2022-08-01T22:28:22.759Z,97028.13
2022-08-01T22:30:51.459Z,97034.50
2022-08-01T22:33:18.550Z,97022.56
2022-08-01T22:35:50.271Z,97022.66
2022-08-01T22:38:19.445Z,97016.88
2022-08-01T22:40:57.997Z,97016.38
2022-08-01T22:43:46.436Z,97021.81
2022-08-01T22:46:16.561Z,97019.78
2022-08-01T22:48:51.340Z,97029.84
2022-08-01T22:51:32.913Z,97028.81
2022-08-01T22:53:59.482Z,97033.22
2022-08-01T22:56:29.341Z,97026.72
2022-08-01T22:59:01.894Z,97039.94
2022-08-01T23:01:29.978Z,97031.09
2022-08-01T23:03:59.279Z,97030.31
2022-08-01T23:06:41.374Z,97033.44
2022-08-01T23:09:09.554Z,97044.09
2022-08-01T23:11:37.053Z,97034.16
2022-08-01T23:14:04.178Z,97023.47
2022-08-01T23:16:31.447Z,97028.81
2022-08-01T23:18:58.760Z,97021.59
2022-08-01T23:21:27.367Z,97032.72
2022-08-01T23:23:55.221Z,97030.63
2022-08-01T23:26:27.193Z,97028.28
2022-08-01T23:28:54.575Z,97026.75
2022-08-01T23:31:24.686Z,97030.00
2022-08-01T23:34:08.097Z,97030.19
2022-08-01T23:36:35.164Z,97025.84
2022-08-01T23:39:01.870Z,97024.19
2022-08-01T23:41:29.548Z,97023.94
2022-08-01T23:44:02.273Z,97028.81
2022-08-01T23:46:28.881Z,97028.81
2022-08-01T23:48:55.626Z,97034.75
2022-08-01T23:51:24.977Z,97040.19
2022-08-01T23:53:52.086Z,97032.91
2022-08-01T23:56:23.764Z,97038.25
2022-08-01T23:58:52.293Z,97035.50
